Time;durP1;ratioP1;P1;durP2;ratioP2;P2;SDS_P1;SDS_P2;PMS_P1;PMS_P2;Temp;Humidity;BMP_temperature;BMP_pressure;BME280_temperature;BME280_humidity;BME280_pressure;Samples;Min_cycle;Max_cycle;Signal;HPM_P1;HPM_P2
2021/12/27 00:00:15;;;;;;;72.93;39.80;;;3.50;1.00;3.70;99353.00;;;;5048561;28;20456;-78
2021/12/27 00:02:45;;;;;;;70.90;38.97;;;3.50;1.00;3.80;99353.00;;;;5061093;28;20491;-80
2021/12/27 00:05:13;;;;;;;58.37;34.90;;;3.50;1.00;3.80;67091.00;;;;5053741;28;20481;-79
2021/12/27 00:07:43;;;;;;;63.70;34.27;;;3.50;1.00;3.80;67091.00;;;;5072924;28;20464;-81
2021/12/27 00:10:13;;;;;;;75.10;36.33;;;3.60;1.00;3.70;67086.00;;;;5072989;28;20451;-85
2021/12/27 00:12:42;;;;;;;79.53;38.97;;;3.60;1.00;217.30;158251.00;;;;5052599;28;20468;-80
2021/12/27 00:15:13;;;;;;;63.60;34.43;;;3.60;1.00;3.80;67087.00;;;;5038108;28;20453;-81
2021/12/27 00:17:42;;;;;;;68.47;36.23;;;3.60;1.00;3.80;99345.00;;;;5039173;28;20491;-80
2021/12/27 00:20:14;;;;;;;55.30;31.77;;;3.60;1.00;3.80;99336.00;;;;5040649;28;20492;-78
2021/12/27 00:22:45;;;;;;;72.83;35.83;;;3.70;1.00;3.70;99331.00;;;;5057177;28;20479;-77
2021/12/27 00:25:15;;;;;;;58.97;33.97;;;3.60;1.00;3.70;99333.00;;;;5026653;28;20445;-81
2021/12/27 00:27:44;;;;;;;63.97;33.93;;;3.80;1.00;3.80;99333.00;;;;5042572;28;20563;-80
2021/12/27 00:30:16;;;;;;;53.13;34.30;;;3.60;1.00;52.70;158334.00;;;;5047513;28;20456;-78
2021/12/27 00:32:44;;;;;;;61.93;35.93;;;3.60;1.00;3.90;99326.00;;;;5033503;28;20464;-80
2021/12/27 00:35:15;;;;;;;60.00;34.43;;;3.60;1.00;3.90;99331.00;;;;5036660;28;20547;-76
2021/12/27 00:37:44;;;;;;;69.23;38.87;;;3.60;1.00;3.90;99330.00;;;;5024504;28;20472;-77
2021/12/27 00:40:14;;;;;;;59.40;32.43;;;3.60;1.00;3.90;99332.00;;;;5034044;28;20949;-77
2021/12/27 00:42:42;;;;;;;55.47;34.57;;;3.60;1.00;4.00;99335.00;;;;5031972;28;20934;-77
2021/12/27 00:45:13;;;;;;;60.83;34.17;;;3.80;1.00;4.00;99333.00;;;;5035258;28;20464;-79
2021/12/27 00:47:42;;;;;;;56.17;33.00;;;3.70;1.00;4.10;99330.00;;;;5034780;28;20541;-80
2021/12/27 00:50:11;;;;;;;62.87;34.43;;;3.70;1.00;4.10;99332.00;;;;5035635;28;20449;-80
2021/12/27 00:52:40;;;;;;;62.37;33.17;;;3.80;1.00;4.10;99322.00;;;;5036049;28;20576;-80
2021/12/27 00:55:12;;;;;;;56.53;33.60;;;3.80;1.00;4.20;99322.00;;;;5035534;28;20457;-80
2021/12/27 00:57:40;;;;;;;69.23;34.70;;;3.90;1.00;4.20;99329.00;;;;5034511;28;20587;-77
2021/12/27 01:00:13;;;;;;;73.43;33.97;;;3.90;1.00;4.20;99335.00;;;;5049027;28;20976;-81
2021/12/27 01:02:43;;;;;;;45.57;29.37;;;3.90;1.00;4.20;99331.00;;;;5034534;28;20492;-81
2021/12/27 01:05:12;;;;;;;54.67;31.37;;;4.00;1.00;4.20;99330.00;;;;5038734;28;20514;-80
2021/12/27 01:07:41;;;;;;;56.93;33.27;;;4.10;1.00;4.20;99317.00;;;;5063393;28;20477;-78
2021/12/27 01:10:33;;;;;;;56.00;30.20;;;4.10;1.00;4.20;99315.00;;;;5047691;28;20478;-79
2021/12/27 01:13:17;;;;;;;49.47;30.53;;;4.10;1.00;217.30;158459.00;;;;5047427;28;20461;-80
2021/12/27 01:15:50;;;;;;;46.93;27.50;;;4.00;1.00;4.20;99326.00;;;;5065831;28;20512;-78
2021/12/27 01:18:21;;;;;;;48.40;29.83;;;4.00;1.00;4.20;99322.00;;;;5049591;28;20472;-79
2021/12/27 01:20:50;;;;;;;52.90;31.80;;;3.90;1.00;4.20;99323.00;;;;5051769;28;20476;-78
2021/12/27 01:23:18;;;;;;;45.77;27.43;;;4.00;1.00;4.20;99323.00;;;;5047351;28;20579;-76
2021/12/27 01:25:49;;;;;;;52.10;29.83;;;4.00;1.00;4.20;99330.00;;;;5045264;28;20829;-81
2021/12/27 01:28:19;;;;;;;46.00;29.07;;;4.00;1.00;52.70;158504.00;;;;5047322;28;20483;-81
2021/12/27 01:30:49;;;;;;;53.90;31.37;;;4.00;1.00;4.30;99325.00;;;;5034712;28;20449;-80
2021/12/27 01:33:21;;;;;;;50.07;30.73;;;4.00;1.00;4.30;99321.00;;;;5032848;28;20449;-80
2021/12/27 01:35:49;;;;;;;45.90;27.90;;;4.00;1.00;4.30;99335.00;;;;5047580;28;20472;-80
2021/12/27 01:38:18;;;;;;;43.43;27.60;;;4.00;1.00;4.30;99331.00;;;;5030610;28;20480;-77
2021/12/27 01:40:50;;;;;;;47.50;28.67;;;4.00;1.00;217.30;158530.00;;;;5031686;28;20906;-78
2021/12/27 01:43:22;;;;;;;44.00;28.73;;;4.10;1.00;4.30;99327.00;;;;5028169;28;20456;-79
2021/12/27 01:45:54;;;;;;;52.30;27.73;;;4.00;1.00;4.40;99344.00;;;;5040134;28;20495;-79
2021/12/27 01:48:28;;;;;;;45.50;27.37;;;4.10;1.00;4.40;99319.00;;;;5039816;28;20557;-81
2021/12/27 01:50:58;;;;;;;42.93;26.23;;;4.10;1.00;4.40;99328.00;;;;5039798;28;20532;-79
2021/12/27 01:53:35;;;;;;;41.97;26.83;;;4.20;1.00;217.30;158572.00;;;;5046254;28;20444;-78
2021/12/27 01:56:11;;;;;;;48.90;29.60;;;4.20;1.00;4.40;99320.00;;;;5037918;28;20971;-80
2021/12/27 01:58:40;;;;;;;53.03;29.03;;;4.30;1.00;4.40;67239.00;;;;5040305;28;20555;-79
2021/12/27 02:01:13;;;;;;;61.80;30.90;;;4.20;1.00;4.40;99318.00;;;;5033863;28;20449;-79
2021/12/27 02:03:43;;;;;;;53.60;30.57;;;4.20;1.00;4.40;99320.00;;;;5040677;28;20507;-78
2021/12/27 02:06:15;;;;;;;60.63;31.20;;;4.20;1.00;4.50;67247.00;;;;5032722;28;20475;-76
2021/12/27 02:08:45;;;;;;;61.40;31.57;;;4.20;1.00;4.50;99314.00;;;;5034331;28;20467;-78
2021/12/27 02:11:16;;;;;;;48.33;27.80;;;4.20;1.00;4.50;99317.00;;;;5033416;28;20453;-79
2021/12/27 02:13:46;;;;;;;52.73;29.80;;;4.20;1.00;4.50;99310.00;;;;5037694;28;20476;-84
2021/12/27 02:16:18;;;;;;;54.00;29.47;;;4.20;1.00;4.50;99288.00;;;;5035979;28;20459;-80
2021/12/27 02:18:48;;;;;;;54.13;29.37;;;4.20;1.00;4.50;99305.00;;;;5037134;28;20484;-79
2021/12/27 02:21:19;;;;;;;53.20;29.70;;;4.20;1.00;4.50;99313.00;;;;5039193;28;20518;-80
2021/12/27 02:23:49;;;;;;;43.10;26.53;;;4.20;1.00;4.60;99300.00;;;;5021399;28;20893;-82
2021/12/27 02:26:27;;;;;;;63.83;30.87;;;4.30;1.00;4.60;67275.00;;;;5021704;28;21229;-78
2021/12/27 02:28:55;;;;;;;57.63;29.93;;;4.40;1.00;4.60;99319.00;;;;5020471;28;20480;-85
2021/12/27 02:31:23;;;;;;;42.50;26.03;;;4.40;1.00;4.60;99313.00;;;;5020952;28;20965;-81
2021/12/27 02:33:52;;;;;;;60.50;30.90;;;4.40;1.00;4.70;99317.00;;;;5022951;28;20457;-79
2021/12/27 02:36:24;;;;;;;99.60;38.10;;;4.60;1.00;217.30;158681.00;;;;5043876;28;20461;-80
2021/12/27 02:38:52;;;;;;;77.23;35.87;;;4.40;1.00;4.70;99313.00;;;;5025885;28;20556;-79
2021/12/27 02:41:20;;;;;;;54.73;34.77;;;4.40;1.00;4.70;99291.00;;;;5020149;28;20450;-79
2021/12/27 02:43:49;;;;;;;69.63;34.30;;;4.40;1.00;4.70;99298.00;;;;5027122;28;20899;-78
2021/12/27 02:46:17;;;;;;;71.70;33.83;;;4.50;1.00;4.70;99298.00;;;;5021725;28;20820;-79
2021/12/27 02:48:49;;;;;;;57.20;30.50;;;4.50;1.00;4.70;99316.00;;;;5024919;28;20480;-79
2021/12/27 02:51:19;;;;;;;68.37;33.90;;;4.40;1.00;4.70;99286.00;;;;5032410;28;20464;-81
2021/12/27 02:53:50;;;;;;;57.57;31.03;;;4.40;1.00;4.70;99298.00;;;;5032107;28;20449;-80
2021/12/27 02:56:24;;;;;;;52.87;32.17;;;4.40;1.00;4.80;99287.00;;;;5017476;28;20462;-82
2021/12/27 02:58:53;;;;;;;71.10;36.67;;;4.50;1.00;4.80;67300.00;;;;5016599;28;20479;-81
2021/12/27 03:01:25;;;;;;;76.80;34.10;;;4.50;1.00;217.30;158681.00;;;;5025939;28;20499;-82
2021/12/27 03:03:57;;;;;;;112.07;43.27;;;4.60;1.00;217.30;158661.00;;;;5026596;28;20463;-87
2021/12/27 03:06:27;;;;;;;54.30;30.37;;;4.50;1.00;217.30;158726.00;;;;5021776;28;20449;-79
2021/12/27 03:09:03;;;;;;;56.77;30.50;;;4.40;1.00;217.30;158707.00;;;;5022079;28;20543;-87
2021/12/27 03:11:33;;;;;;;46.93;29.30;;;4.40;1.00;4.80;67328.00;;;;5017835;28;20454;-82
2021/12/27 03:14:02;;;;;;;51.83;29.30;;;4.70;1.00;217.30;158687.00;;;;5028066;28;20461;-81
2021/12/27 03:16:34;;;;;;;47.10;28.60;;;4.70;1.00;52.70;158758.00;;;;5035302;28;20453;-79
2021/12/27 03:19:03;;;;;;;49.67;28.07;;;4.70;1.00;217.30;158796.00;;;;5053208;28;20491;-80
2021/12/27 03:21:33;;;;;;;81.07;30.80;;;4.70;1.00;4.90;67339.00;;;;5019551;28;20469;-81
2021/12/27 03:24:03;;;;;;;47.77;28.10;;;4.70;1.00;5.00;99288.00;;;;5029989;28;20465;-80
2021/12/27 03:26:32;;;;;;;62.43;31.00;;;4.70;1.00;5.00;99285.00;;;;5031004;28;20470;-81
2021/12/27 03:29:00;;;;;;;46.47;27.60;;;4.80;1.00;5.00;99276.00;;;;5035207;28;20473;-81
2021/12/27 03:31:28;;;;;;;46.60;27.33;;;4.80;1.00;5.10;99270.00;;;;5018269;28;20532;-80
2021/12/27 03:33:59;;;;;;;51.67;29.57;;;4.80;1.00;5.00;67373.00;;;;5017918;28;20471;-79
2021/12/27 03:36:28;;;;;;;49.23;29.43;;;4.80;1.00;5.10;99285.00;;;;5024909;28;20453;-82
2021/12/27 03:38:56;;;;;;;69.10;30.87;;;4.80;1.00;5.10;99289.00;;;;5029514;28;20502;-81
2021/12/27 03:41:27;;;;;;;47.80;27.83;;;4.80;1.00;5.10;99278.00;;;;5029018;28;20508;-80
2021/12/27 03:43:55;;;;;;;55.17;29.40;;;4.80;1.00;217.30;158879.00;;;;5032947;28;20485;-81
2021/12/27 03:46:23;;;;;;;51.20;29.10;;;4.80;1.00;5.10;67390.00;;;;5017408;28;20462;-81
2021/12/27 03:48:52;;;;;;;43.10;26.27;;;4.80;1.00;5.20;99284.00;;;;5019754;28;20488;-81
2021/12/27 03:51:20;;;;;;;45.47;25.37;;;4.90;1.00;5.20;99277.00;;;;5022407;28;20471;-80
2021/12/27 03:53:49;;;;;;;63.60;31.27;;;5.00;1.00;5.20;99289.00;;;;5015642;28;20473;-81
2021/12/27 03:56:22;;;;;;;37.53;23.60;;;4.90;1.00;5.20;99277.00;;;;5015649;28;20508;-80
2021/12/27 03:58:56;;;;;;;48.67;26.40;;;4.90;1.00;5.30;99279.00;;;;5018088;28;20560;-81
2021/12/27 04:01:27;;;;;;;49.37;28.73;;;5.20;1.00;5.30;99290.00;;;;5013611;28;20473;-82
2021/12/27 04:03:58;;;;;;;41.10;25.57;;;5.00;1.00;5.30;67438.00;;;;5026117;28;20477;-80
2021/12/27 04:06:28;;;;;;;45.67;25.23;;;5.10;1.00;5.30;99279.00;;;;5018851;28;21043;-81
2021/12/27 04:08:56;;;;;;;49.07;28.40;;;5.20;1.00;217.30;158970.00;;;;5016751;28;20484;-80
2021/12/27 04:11:25;;;;;;;60.17;28.73;;;5.30;1.00;5.40;99288.00;;;;5015537;28;20458;-81
2021/12/27 04:13:59;;;;;;;51.93;27.10;;;5.30;1.00;5.40;99279.00;;;;5015642;28;20878;-81
2021/12/27 04:16:28;;;;;;;102.63;33.03;;;5.30;1.00;5.40;99272.00;;;;5021469;28;21403;-81
2021/12/27 04:18:56;;;;;;;60.83;28.40;;;5.30;1.00;5.40;67449.00;;;;5023881;28;20493;-81
2021/12/27 04:21:24;;;;;;;54.53;28.37;;;5.30;1.00;5.40;99273.00;;;;5034641;28;20444;-81
2021/12/27 04:23:53;;;;;;;87.83;45.83;;;5.20;1.00;5.40;99289.00;;;;5032979;28;20471;-79
2021/12/27 04:26:22;;;;;;;54.20;32.57;;;5.10;1.00;5.50;99271.00;;;;5036494;28;20468;-80
2021/12/27 04:28:51;;;;;;;44.53;29.60;;;5.30;1.00;5.50;99276.00;;;;5042264;28;20481;-80
2021/12/27 04:31:20;;;;;;;48.13;31.67;;;5.30;1.00;5.60;67487.00;;;;5045243;28;20468;-81
2021/12/27 04:33:49;;;;;;;50.10;31.40;;;5.40;1.00;5.50;67487.00;;;;5025903;28;20528;-80
2021/12/27 04:36:17;;;;;;;47.53;29.93;;;5.40;1.00;5.60;99276.00;;;;5030782;28;20465;-79
2021/12/27 04:38:45;;;;;;;48.10;28.97;;;5.40;1.00;5.60;99271.00;;;;5029159;28;20492;-80
2021/12/27 04:41:18;;;;;;;41.60;25.37;;;5.40;1.00;5.60;99244.00;;;;5027902;28;20457;-80
2021/12/27 04:43:47;;;;;;;39.53;25.43;;;5.40;1.00;217.30;159098.00;;;;5026666;28;20460;-80
2021/12/27 04:46:15;;;;;;;39.13;25.57;;;5.40;1.00;5.60;67504.00;;;;5018253;28;20457;-81
2021/12/27 04:48:45;;;;;;;47.80;26.87;;;5.40;1.00;5.60;67504.00;;;;5016190;28;20489;-81
2021/12/27 04:51:17;;;;;;;40.63;24.90;;;5.30;1.00;217.30;159080.00;;;;5016563;28;20972;-81
2021/12/27 04:53:46;;;;;;;43.30;24.60;;;5.30;1.00;5.60;67495.00;;;;5017492;28;20463;-81
2021/12/27 04:56:14;;;;;;;39.33;24.43;;;5.20;1.00;5.70;67502.00;;;;5016987;28;20815;-81
2021/12/27 04:58:44;;;;;;;35.67;23.80;;;5.30;1.00;5.70;67504.00;;;;5026829;28;20485;-80
2021/12/27 05:01:13;;;;;;;37.97;23.60;;;5.30;1.00;217.30;159119.00;;;;5042839;28;20456;-80
2021/12/27 05:03:41;;;;;;;37.77;23.97;;;5.40;1.00;5.80;67526.00;;;;5027170;28;20446;-81
2021/12/27 05:06:13;;;;;;;35.80;22.20;;;5.40;1.00;5.80;99260.00;;;;5016660;28;20460;-81
2021/12/27 05:08:42;;;;;;;36.00;23.10;;;5.50;1.00;217.30;159169.00;;;;5024103;28;20564;-80
2021/12/27 05:11:11;;;;;;;32.40;22.23;;;5.60;1.00;5.80;67548.00;;;;5015624;28;20460;-80
2021/12/27 05:13:39;;;;;;;37.93;22.30;;;5.60;1.00;217.30;159197.00;;;;5014935;28;20473;-81
2021/12/27 05:16:07;;;;;;;41.20;23.93;;;5.70;1.00;5.80;99236.00;;;;5019880;28;20464;-82
2021/12/27 05:18:38;;;;;;;43.07;24.27;;;5.60;1.00;5.70;99227.00;;;;5016510;28;20489;-80
2021/12/27 05:21:07;;;;;;;34.60;22.97;;;5.50;1.00;5.80;67548.00;;;;5024204;28;20484;-80
2021/12/27 05:23:37;;;;;;;40.40;25.10;;;5.50;1.00;5.80;99242.00;;;;5023607;28;20460;-82
2021/12/27 05:26:06;;;;;;;37.60;23.13;;;5.70;1.00;5.80;67548.00;;;;5022691;28;20464;-79
2021/12/27 05:28:39;;;;;;;38.07;23.10;;;5.40;1.00;217.30;159139.00;;;;5032862;28;20491;-83
2021/12/27 05:31:11;;;;;;;32.93;20.83;;;5.50;1.00;5.90;67562.00;;;;5019547;28;20457;-79
2021/12/27 05:33:42;;;;;;;36.63;21.80;;;5.50;1.00;5.80;99219.00;;;;5038966;28;20453;-81
2021/12/27 05:36:17;;;;;;;29.37;20.50;;;5.50;1.00;52.70;159201.00;;;;5014319;28;20457;-82
2021/12/27 05:38:52;;;;;;;30.17;21.70;;;5.50;1.00;217.30;159236.00;;;;5028739;28;20480;-83
2021/12/27 05:41:22;;;;;;;30.83;21.80;;;5.60;1.00;217.30;159236.00;;;;5024604;28;20506;-79
2021/12/27 05:43:53;;;;;;;36.23;21.90;;;5.60;1.00;6.00;99214.00;;;;5017186;28;20970;-83
2021/12/27 05:46:22;;;;;;;34.03;21.63;;;5.60;1.00;6.00;99219.00;;;;5016217;28;20969;-80
2021/12/27 05:48:50;;;;;;;50.40;25.50;;;5.70;1.00;6.00;99205.00;;;;5013039;28;20477;-81
2021/12/27 05:51:18;;;;;;;60.80;27.83;;;5.70;1.00;6.00;99215.00;;;;5011634;28;20475;-81
2021/12/27 05:53:48;;;;;;;39.80;24.60;;;5.70;1.00;6.00;99202.00;;;;5039073;28;20473;-79
2021/12/27 05:56:17;;;;;;;47.23;26.10;;;5.90;1.00;6.00;99214.00;;;;5032223;28;20448;-80
2021/12/27 05:58:45;;;;;;;48.50;28.00;;;5.70;1.00;6.10;99208.00;;;;5055394;28;20548;-77
2021/12/27 06:01:14;;;;;;;47.20;26.40;;;5.70;1.00;6.10;99194.00;;;;5042864;28;20451;-78
2021/12/27 06:03:43;;;;;;;42.27;28.10;;;6.00;1.00;6.10;99197.00;;;;5048828;28;20444;-77
2021/12/27 06:06:11;;;;;;;49.40;29.47;;;5.90;1.00;6.10;99213.00;;;;5046095;28;20533;-80
2021/12/27 06:08:39;;;;;;;41.53;23.80;;;5.80;1.00;6.10;99206.00;;;;5033673;28;20481;-79
2021/12/27 06:11:09;;;;;;;41.30;25.90;;;5.80;1.00;6.10;99207.00;;;;5023449;28;20475;-82
2021/12/27 06:13:38;;;;;;;43.07;28.97;;;5.80;1.00;217.30;159288.00;;;;5021747;28;20454;-82
2021/12/27 06:16:07;;;;;;;41.17;27.60;;;5.60;1.00;6.10;99175.00;;;;5017852;28;20460;-79
2021/12/27 06:18:35;;;;;;;45.00;25.93;;;5.70;1.00;6.10;99197.00;;;;5022593;28;20494;-80
2021/12/27 06:21:04;;;;;;;36.63;24.20;;;5.80;1.00;6.10;99184.00;;;;5024111;28;20456;-80
2021/12/27 06:23:35;;;;;;;42.87;26.13;;;5.70;1.00;6.10;99181.00;;;;5037191;28;20463;-81
2021/12/27 06:26:03;;;;;;;38.07;25.10;;;5.70;1.00;6.10;99188.00;;;;5019764;28;20463;-81
2021/12/27 06:28:34;;;;;;;36.77;23.20;;;5.60;1.00;6.00;99195.00;;;;5039108;28;20565;-78
2021/12/27 06:31:03;;;;;;;40.40;22.87;;;5.60;1.00;6.00;99203.00;;;;5023433;28;20515;-78
2021/12/27 06:33:32;;;;;;;34.67;22.60;;;5.50;1.00;52.70;159278.00;;;;5022992;28;20483;-82
2021/12/27 06:36:01;;;;;;;38.50;24.70;;;5.60;1.00;6.10;99208.00;;;;5022261;28;20461;-81
2021/12/27 06:38:29;;;;;;;45.70;24.50;;;5.80;1.00;6.10;99204.00;;;;5034807;28;20505;-83
2021/12/27 06:41:00;;;;;;;35.97;23.80;;;5.60;1.00;217.30;159294.00;;;;5038514;28;20464;-79
2021/12/27 06:43:30;;;;;;;40.60;25.10;;;5.60;1.00;6.10;99204.00;;;;5029943;28;20449;-80
2021/12/27 06:46:00;;;;;;;33.87;23.40;;;5.70;1.00;217.30;159290.00;;;;5034840;28;20433;-80
2021/12/27 06:48:29;;;;;;;33.30;22.87;;;5.80;1.00;6.10;99205.00;;;;5042873;28;20476;-80
2021/12/27 06:50:58;;;;;;;32.47;21.97;;;5.80;1.00;217.30;159290.00;;;;5040877;28;20452;-79
2021/12/27 06:53:30;;;;;;;36.50;22.83;;;5.90;1.00;6.10;99200.00;;;;5040397;28;21042;-81
2021/12/27 06:56:00;;;;;;;33.57;23.20;;;5.80;1.00;6.10;99213.00;;;;5040740;28;20539;-82
2021/12/27 06:58:37;;;;;;;32.63;22.17;;;5.70;1.00;6.10;99213.00;;;;5039795;28;20507;-82
2021/12/27 07:01:08;;;;;;;30.97;22.10;;;5.80;1.00;6.10;67620.00;;;;5049131;28;20461;-82
2021/12/27 07:03:37;;;;;;;30.23;20.60;;;5.80;1.00;52.70;159337.00;;;;5032613;28;20454;-83
2021/12/27 07:06:06;;;;;;;40.20;23.40;;;5.70;1.00;6.20;67634.00;;;;5024062;28;20461;-81
2021/12/27 07:08:35;;;;;;;31.70;22.73;;;5.90;1.00;6.20;67634.00;;;;5025802;28;20835;-81
2021/12/27 07:11:03;;;;;;;32.07;22.43;;;5.90;1.00;6.20;67628.00;;;;5051103;28;20449;-81
2021/12/27 07:13:32;;;;;;;34.50;22.27;;;5.90;1.00;6.20;67625.00;;;;5057678;28;20489;-81
2021/12/27 07:16:01;;;;;;;32.00;21.80;;;5.70;1.00;6.20;67634.00;;;;5029169;28;20475;-81
2021/12/27 07:18:31;;;;;;;36.57;24.07;;;5.80;1.00;6.20;67637.00;;;;5039475;28;20544;-82
2021/12/27 07:20:59;;;;;;;31.10;22.20;;;5.90;1.00;6.20;67626.00;;;;5017559;28;20480;-80
2021/12/27 07:23:27;;;;;;;31.30;21.53;;;5.80;1.00;6.20;99188.00;;;;5018575;28;20449;-82
2021/12/27 07:25:56;;;;;;;28.00;20.30;;;5.70;1.00;6.20;99198.00;;;;5022864;28;20462;-79
2021/12/27 07:28:25;;;;;;;28.07;20.93;;;5.70;1.00;6.20;99202.00;;;;5028787;28;20480;-82
2021/12/27 07:30:53;;;;;;;32.63;23.10;;;5.70;1.00;6.30;99201.00;;;;5026769;28;20774;-82
2021/12/27 07:33:22;;;;;;;33.37;23.80;;;6.00;1.00;6.30;67651.00;;;;5023614;28;20465;-79
2021/12/27 07:35:52;;;;;;;29.77;21.90;;;5.90;1.00;6.30;99195.00;;;;5030080;28;20447;-81
2021/12/27 07:38:21;;;;;;;29.97;20.50;;;5.90;1.00;6.30;67654.00;;;;5022266;28;20576;-79
2021/12/27 07:40:50;;;;;;;26.83;20.57;;;5.90;1.00;6.30;99203.00;;;;5038215;28;20482;-79
2021/12/27 07:43:19;;;;;;;27.80;20.17;;;6.00;1.00;52.70;159399.00;;;;5036909;28;20461;-82
2021/12/27 07:45:48;;;;;;;29.10;20.40;;;5.80;1.00;217.30;159411.00;;;;5031780;28;20490;-81
2021/12/27 07:48:17;;;;;;;27.30;20.20;;;6.00;1.00;217.30;159421.00;;;;5028155;28;20469;-80
2021/12/27 07:50:46;;;;;;;31.43;19.70;;;5.90;1.00;52.70;159373.00;;;;5030754;28;20458;-80
2021/12/27 07:53:16;;;;;;;26.70;18.67;;;5.90;1.00;217.30;159437.00;;;;5046966;28;20524;-81
2021/12/27 07:55:46;;;;;;;26.90;20.27;;;5.90;1.00;217.30;159437.00;;;;5026447;28;20454;-81
2021/12/27 07:58:14;;;;;;;25.47;19.50;;;5.90;1.00;6.50;67676.00;;;;5032582;28;20488;-86
2021/12/27 08:00:45;;;;;;;29.60;20.47;;;6.10;1.00;217.30;159457.00;;;;5024607;28;20535;-81
2021/12/27 08:03:13;;;;;;;27.23;20.87;;;6.10;1.00;217.30;159443.00;;;;5030828;28;20461;-80
2021/12/27 08:05:42;;;;;;;30.13;20.30;;;6.20;1.00;52.70;159431.00;;;;5027643;28;20449;-81
2021/12/27 08:08:11;;;;;;;27.40;20.13;;;6.10;1.00;52.70;159405.00;;;;5036327;28;21142;-81
2021/12/27 08:10:44;;;;;;;27.50;20.80;;;6.10;1.00;6.50;67696.00;;;;5025480;28;20453;-86
2021/12/27 08:13:13;;;;;;;30.40;21.00;;;6.10;1.00;217.30;159476.00;;;;5033545;28;20836;-80
2021/12/27 08:15:42;;;;;;;30.23;22.20;;;6.00;1.00;6.50;67687.00;;;;5021597;28;20492;-80
2021/12/27 08:18:10;;;;;;;32.90;21.00;;;6.10;1.00;6.50;67679.00;;;;5024708;28;20562;-80
2021/12/27 08:20:39;;;;;;;30.80;20.63;;;6.10;1.00;6.50;99194.00;;;;5023997;28;20465;-81
2021/12/27 08:23:07;;;;;;;27.80;21.23;;;6.10;1.00;6.60;99210.00;;;;5026125;28;20467;-81
2021/12/27 08:25:36;;;;;;;24.90;19.60;;;6.20;1.00;52.70;159504.00;;;;5025279;28;20452;-81
2021/12/27 08:28:06;;;;;;;25.80;18.60;;;6.10;1.00;6.70;99200.00;;;;5026617;28;20470;-79
2021/12/27 08:30:35;;;;;;;24.67;19.03;;;6.20;1.00;6.70;99184.00;;;;5036665;28;20463;-80
2021/12/27 08:33:04;;;;;;;25.93;18.90;;;6.20;1.00;6.70;99180.00;;;;5048717;28;20457;-80
2021/12/27 08:35:32;;;;;;;26.30;19.70;;;6.20;1.00;6.80;67762.00;;;;5055062;28;20464;-79
2021/12/27 08:38:01;;;;;;;24.87;18.33;;;6.30;1.00;217.30;159603.00;;;;5039530;28;20466;-80
2021/12/27 08:40:30;;;;;;;24.30;18.17;;;6.40;1.00;6.80;99196.00;;;;5037395;28;20965;-83
2021/12/27 08:42:58;;;;;;;23.47;18.37;;;6.30;1.00;6.80;99210.00;;;;5027081;28;20494;-81
2021/12/27 08:45:29;;;;;;;20.77;18.23;;;6.30;1.00;6.90;67783.00;;;;5048351;28;20456;-86
2021/12/27 08:47:58;;;;;;;22.60;17.53;;;6.40;1.00;7.00;67799.00;;;;5031846;28;20480;-78
2021/12/27 08:50:26;;;;;;;24.50;19.40;;;6.50;1.00;7.10;99181.00;;;;5028856;28;20539;-84
2021/12/27 08:52:55;;;;;;;21.27;18.47;;;6.70;1.00;7.10;99197.00;;;;5033121;28;20457;-79
2021/12/27 08:55:24;;;;;;;24.80;18.23;;;6.80;1.00;7.10;67831.00;;;;5026154;28;20919;-81
2021/12/27 08:57:52;;;;;;;22.70;18.43;;;6.70;1.00;7.10;99192.00;;;;5032122;28;20500;-80
2021/12/27 09:00:21;;;;;;;25.30;16.93;;;6.70;1.00;7.20;99179.00;;;;5049967;28;20499;-85
2021/12/27 09:02:51;;;;;;;18.50;16.53;;;6.90;1.00;7.30;67860.00;;;;5034028;28;20485;-80
2021/12/27 09:05:20;;;;;;;22.90;17.83;;;6.80;1.00;7.20;67850.00;;;;5027237;28;20507;-79
2021/12/27 09:07:48;;;;;;;21.17;17.77;;;6.70;1.00;7.20;99162.00;;;;5023883;28;20588;-79
2021/12/27 09:10:17;;;;;;;25.70;18.60;;;6.70;1.00;7.30;99159.00;;;;5028420;28;21056;-81
2021/12/27 09:12:46;;;;;;;22.93;19.20;;;6.60;1.00;7.30;99157.00;;;;5030384;28;20479;-81
2021/12/27 09:15:15;;;;;;;21.87;17.70;;;6.70;1.00;7.40;99154.00;;;;5026277;28;20504;-81
2021/12/27 09:17:44;;;;;;;21.27;18.17;;;6.80;1.00;7.40;67897.00;;;;5026641;28;20537;-83
2021/12/27 09:20:15;;;;;;;23.37;17.37;;;6.80;1.00;7.40;67900.00;;;;5044697;28;20472;-81
2021/12/27 09:22:43;;;;;;;22.47;17.43;;;6.80;1.00;217.30;159871.00;;;;5029195;28;20539;-83
2021/12/27 09:25:12;;;;;;;24.73;17.17;;;6.80;1.00;7.50;67916.00;;;;5030209;28;20444;-80
2021/12/27 09:27:41;;;;;;;25.33;18.80;;;7.00;1.00;7.60;67939.00;;;;5035825;28;20461;-79
2021/12/27 09:30:13;;;;;;;20.67;16.90;;;7.10;1.00;217.30;159982.00;;;;5031964;28;20449;-80
2021/12/27 09:32:42;;;;;;;22.90;17.43;;;7.20;1.00;7.70;99174.00;;;;5047255;28;20438;-77
2021/12/27 09:35:11;;;;;;;22.67;17.13;;;7.40;1.00;7.70;99186.00;;;;5036491;28;20524;-81
2021/12/27 09:37:41;;;;;;;20.37;17.10;;;7.30;1.00;7.70;67963.00;;;;5026662;28;20473;-79
2021/12/27 09:40:10;;;;;;;28.23;19.37;;;7.30;1.00;7.70;99169.00;;;;5019692;28;20520;-82
2021/12/27 09:42:39;;;;;;;23.40;17.83;;;7.40;1.00;7.70;99159.00;;;;5028721;28;20497;-82
2021/12/27 09:45:09;;;;;;;19.23;16.73;;;7.20;1.00;7.70;99168.00;;;;5025514;28;20463;-80
2021/12/27 09:47:38;;;;;;;22.07;17.73;;;7.10;1.00;7.60;99157.00;;;;5033698;28;20484;-80
2021/12/27 09:50:23;;;;;;;24.33;17.90;;;7.10;1.00;7.60;99162.00;;;;5029575;28;20807;-81
2021/12/27 09:52:53;;;;;;;22.13;18.53;;;6.90;1.00;7.60;67936.00;;;;5027207;28;20449;-80
2021/12/27 09:55:21;;;;;;;24.50;18.47;;;7.00;1.00;7.60;99154.00;;;;5027175;28;20953;-80
2021/12/27 09:57:50;;;;;;;23.20;18.53;;;7.00;1.00;7.50;67936.00;;;;5026774;28;20834;-80
2021/12/27 10:00:18;;;;;;;28.53;19.00;;;7.00;1.00;7.60;99158.00;;;;5036524;28;20536;-82
2021/12/27 10:02:52;;;;;;;21.20;18.77;;;7.00;1.00;7.50;99134.00;;;;5029353;28;20530;-80
2021/12/27 10:05:21;;;;;;;21.40;18.33;;;6.90;1.00;7.50;99140.00;;;;5024384;28;20442;-82
2021/12/27 10:07:52;;;;;;;23.97;20.60;;;6.90;1.00;7.60;67936.00;;;;5030929;28;20480;-81
2021/12/27 10:10:32;;;;;;;23.90;19.03;;;6.90;1.00;7.60;99125.00;;;;5028586;28;20457;-79
2021/12/27 10:13:01;;;;;;;27.87;19.70;;;7.00;1.00;7.70;99124.00;;;;5049008;28;20510;-84
2021/12/27 10:15:36;;;;;;;23.87;20.07;;;7.00;1.00;7.70;99124.00;;;;5038804;28;20465;-84
2021/12/27 10:18:13;;;;;;;22.07;19.50;;;7.20;1.00;7.80;99120.00;;;;5040321;28;20499;-82
2021/12/27 10:20:43;;;;;;;26.87;19.40;;;7.30;1.00;7.80;99118.00;;;;5032442;28;20822;-79
2021/12/27 10:23:17;;;;;;;24.97;20.10;;;7.40;1.00;7.80;99116.00;;;;5036118;28;20537;-81
2021/12/27 10:25:51;;;;;;;25.60;20.33;;;7.30;1.00;7.90;99121.00;;;;5031283;28;20472;-80
2021/12/27 10:28:26;;;;;;;29.57;20.83;;;7.40;1.00;7.90;99112.00;;;;5048566;28;20477;-81
2021/12/27 10:31:03;;;;;;;26.03;20.30;;;7.40;1.00;8.00;99115.00;;;;5035796;28;20457;-80
2021/12/27 10:33:33;;;;;;;26.50;20.00;;;7.40;1.00;8.00;99117.00;;;;5042363;28;20456;-82
2021/12/27 10:36:02;;;;;;;27.90;21.30;;;7.40;1.00;8.00;99108.00;;;;5037646;28;20450;-79
2021/12/27 10:38:41;;;;;;;30.37;21.90;;;7.50;1.00;217.30;160139.00;;;;5020580;28;20505;-80
2021/12/27 10:41:12;;;;;;;30.90;20.97;;;7.50;1.00;8.10;68048.00;;;;5027443;28;20468;-79
2021/12/27 10:43:42;;;;;;;28.50;21.60;;;7.60;1.00;8.10;99100.00;;;;5021204;28;20530;-81
2021/12/27 10:46:14;;;;;;;30.10;21.53;;;7.50;1.00;8.10;99097.00;;;;5025212;28;20445;-80
2021/12/27 10:48:46;;;;;;;32.07;23.03;;;7.60;1.00;8.10;99097.00;;;;5025191;28;20495;-81
2021/12/27 10:51:19;;;;;;;36.07;23.23;;;7.60;1.00;8.10;99095.00;;;;5043618;28;20491;-78
2021/12/27 10:53:52;;;;;;;27.17;22.37;;;7.50;1.00;8.20;99094.00;;;;5030487;28;20493;-80
2021/12/27 10:56:24;;;;;;;27.90;20.57;;;7.70;1.00;8.30;99087.00;;;;5044687;28;20967;-79
2021/12/27 10:58:55;;;;;;;25.33;20.83;;;7.80;1.00;8.40;99087.00;;;;5021556;28;21454;-81
2021/12/27 11:01:26;;;;;;;28.53;20.40;;;7.80;1.00;8.40;99088.00;;;;5032368;28;20540;-80
2021/12/27 11:04:00;;;;;;;23.90;19.63;;;7.90;1.00;8.40;68112.00;;;;5030808;28;21026;-80
2021/12/27 11:06:30;;;;;;;26.20;19.37;;;7.80;1.00;8.30;68107.00;;;;5018409;28;20485;-81
2021/12/27 11:09:00;;;;;;;25.90;20.70;;;7.80;1.00;8.40;68115.00;;;;5027602;28;20454;-81